Time;durP1;ratioP1;P1;durP2;ratioP2;P2;SDS_P1;SDS_P2;PMS_P1;PMS_P2;Temp;Humidity;BMP_temperature;BMP_pressure;BME280_temperature;BME280_humidity;BME280_pressure;Samples;Min_cycle;Max_cycle;Signal;HPM_P1;HPM_P2
2021/08/09 00:01:21;;;;;;;527.20;408.90;;;;;;;;;;5045013;28;20036;-76
2021/08/09 00:03:47;;;;;;;523.78;400.60;;;;;;;;;;5050511;28;20021;-74
2021/08/09 00:06:13;;;;;;;527.95;403.98;;;;;;;;;;5048903;28;20040;-76
2021/08/09 00:08:39;;;;;;;524.50;399.00;;;;;;;;;;5048288;28;20056;-75
2021/08/09 00:11:05;;;;;;;525.72;405.80;;;;;;;;;;5050999;28;20138;-75
2021/08/09 00:13:31;;;;;;;524.38;401.23;;;;;;;;;;5049973;28;20025;-74
2021/08/09 00:15:58;;;;;;;523.17;395.65;;;;;;;;;;5050461;28;20028;-76
2021/08/09 00:18:25;;;;;;;525.80;405.38;;;;;;;;;;5049841;28;20163;-75
2021/08/09 00:20:52;;;;;;;526.28;403.23;;;;;;;;;;5029113;28;20021;-74
2021/08/09 00:23:18;;;;;;;524.75;401.83;;;;;;;;;;5047789;28;20504;-74
2021/08/09 00:25:44;;;;;;;526.55;406.98;;;;;;;;;;5049976;28;20036;-76
2021/08/09 00:28:10;;;;;;;525.05;404.55;;;;;;;;;;5049418;28;20029;-76
2021/08/09 00:30:36;;;;;;;520.20;393.17;;;;;;;;;;5049284;28;20055;-75
2021/08/09 00:33:02;;;;;;;525.72;405.60;;;;;;;;;;5050079;28;20024;-75
2021/08/09 00:35:28;;;;;;;527.30;404.83;;;;;;;;;;5028335;28;20036;-75
2021/08/09 00:37:54;;;;;;;525.95;405.45;;;;;;;;;;5049182;28;20021;-76
2021/08/09 00:40:20;;;;;;;526.28;408.77;;;;;;;;;;5049855;28;20680;-75
2021/08/09 00:42:46;;;;;;;524.50;399.92;;;;;;;;;;5048369;28;20063;-75
2021/08/09 00:45:12;;;;;;;527.13;401.65;;;;;;;;;;5026754;28;20043;-75
2021/08/09 00:47:38;;;;;;;527.88;404.52;;;;;;;;;;5029838;28;20040;-75
2021/08/09 00:50:05;;;;;;;523.45;395.08;;;;;;;;;;5049028;28;20104;-76
2021/08/09 00:52:31;;;;;;;524.17;395.80;;;;;;;;;;5027980;28;20036;-76
2021/08/09 00:54:57;;;;;;;522.05;388.88;;;;;;;;;;5026471;28;20060;-75
2021/08/09 00:57:23;;;;;;;522.58;391.15;;;;;;;;;;5049118;28;20100;-75
2021/08/09 00:59:49;;;;;;;525.72;398.95;;;;;;;;;;5048892;28;20048;-74
2021/08/09 01:02:15;;;;;;;524.45;395.83;;;;;;;;;;5047231;28;20029;-76
2021/08/09 01:04:41;;;;;;;525.10;400.33;;;;;;;;;;5048635;28;20506;-74
2021/08/09 01:07:08;;;;;;;521.70;390.35;;;;;;;;;;5048346;28;20040;-74
2021/08/09 01:09:54;;;;;;;524.53;396.27;;;;;;;;;;5047887;28;20552;-75
2021/08/09 01:12:32;;;;;;;527.50;407.42;;;;;;;;;;5031372;28;20033;-75
2021/08/09 01:15:11;;;;;;;524.72;396.05;;;;;;;;;;5030384;28;20035;-75
2021/08/09 01:17:40;;;;;;;524.97;397.70;;;;;;;;;;5049216;28;20502;-74
2021/08/09 01:20:05;;;;;;;523.63;391.75;;;;;;;;;;5048583;28;20044;-76
2021/08/09 01:22:50;;;;;;;525.70;401.10;;;;;;;;;;5048953;28;20036;-75
2021/08/09 01:25:38;;;;;;;525.40;396.42;;;;;;;;;;5048596;28;20082;-75
2021/08/09 01:28:06;;;;;;;527.97;392.92;;;;;;;;;;5048276;28;20150;-75
2021/08/09 01:30:33;;;;;;;526.88;400.75;;;;;;;;;;5026737;28;20082;-75
2021/08/09 01:32:59;;;;;;;524.63;398.35;;;;;;;;;;5027421;28;20033;-75
2021/08/09 01:35:28;;;;;;;526.58;403.25;;;;;;;;;;5048245;28;20021;-75
2021/08/09 01:37:55;;;;;;;524.05;390.92;;;;;;;;;;5048572;28;20025;-75
2021/08/09 01:40:22;;;;;;;524.35;393.10;;;;;;;;;;5048761;28;20032;-75
2021/08/09 01:42:48;;;;;;;525.45;400.20;;;;;;;;;;5030492;28;20220;-74
2021/08/09 01:45:15;;;;;;;526.55;398.27;;;;;;;;;;5029268;28;20021;-75
2021/08/09 01:47:42;;;;;;;525.53;399.23;;;;;;;;;;5046995;28;20078;-75
2021/08/09 01:50:10;;;;;;;524.30;394.38;;;;;;;;;;5025727;28;20025;-75
2021/08/09 01:52:36;;;;;;;523.03;392.08;;;;;;;;;;5048297;28;20158;-75
2021/08/09 01:55:03;;;;;;;526.17;398.75;;;;;;;;;;5022795;28;20045;-75
2021/08/09 01:57:29;;;;;;;523.63;395.27;;;;;;;;;;5027274;28;20071;-76
2021/08/09 01:59:55;;;;;;;524.78;391.95;;;;;;;;;;5024886;28;20048;-75
2021/08/09 02:02:31;;;;;;;523.55;396.90;;;;;;;;;;5047090;28;20025;-75
2021/08/09 02:05:06;;;;;;;523.50;392.85;;;;;;;;;;5048084;28;20084;-75
2021/08/09 02:07:33;;;;;;;524.05;394.42;;;;;;;;;;5046764;28;20025;-75
2021/08/09 02:09:59;;;;;;;523.55;390.65;;;;;;;;;;5047580;28;20147;-75
2021/08/09 02:12:25;;;;;;;527.40;400.25;;;;;;;;;;5031174;28;20107;-75
2021/08/09 02:14:52;;;;;;;523.05;393.45;;;;;;;;;;5047701;28;20466;-75
2021/08/09 02:17:20;;;;;;;522.35;389.13;;;;;;;;;;5023279;28;20404;-74
2021/08/09 02:19:52;;;;;;;521.63;388.05;;;;;;;;;;5048231;28;20021;-74
2021/08/09 02:22:18;;;;;;;525.03;394.98;;;;;;;;;;5030568;28;20029;-75
2021/08/09 02:24:57;;;;;;;525.05;390.77;;;;;;;;;;5048160;28;20440;-74
2021/08/09 02:27:26;;;;;;;523.40;387.83;;;;;;;;;;5047692;28;20044;-75
2021/08/09 02:29:53;;;;;;;528.47;398.52;;;;;;;;;;5026616;28;20044;-75
2021/08/09 02:32:20;;;;;;;525.58;396.02;;;;;;;;;;5047940;28;20548;-74
2021/08/09 02:34:47;;;;;;;523.10;388.80;;;;;;;;;;5047658;28;20032;-75
2021/08/09 02:37:13;;;;;;;527.63;387.38;;;;;;;;;;5023293;28;20086;-75
2021/08/09 02:39:40;;;;;;;525.35;395.05;;;;;;;;;;5048009;28;20112;-75
2021/08/09 02:42:07;;;;;;;523.63;388.35;;;;;;;;;;5046851;28;20192;-75
2021/08/09 02:44:33;;;;;;;524.38;398.33;;;;;;;;;;5047788;28;20343;-75
2021/08/09 02:47:00;;;;;;;522.00;384.33;;;;;;;;;;5026702;28;20033;-75
2021/08/09 02:49:26;;;;;;;524.90;393.92;;;;;;;;;;5048138;28;20044;-75
2021/08/09 02:51:52;;;;;;;526.00;395.40;;;;;;;;;;5047150;28;20076;-75
2021/08/09 02:54:19;;;;;;;522.25;390.15;;;;;;;;;;5045648;28;20049;-75
2021/08/09 02:56:45;;;;;;;537.28;398.17;;;;;;;;;;5045898;28;20032;-75
2021/08/09 02:59:12;;;;;;;521.90;388.27;;;;;;;;;;5025098;28;20033;-74
2021/08/09 03:01:38;;;;;;;523.95;390.48;;;;;;;;;;5047087;28;20104;-75
2021/08/09 03:04:05;;;;;;;523.53;389.60;;;;;;;;;;5027103;28;20230;-76
2021/08/09 03:06:32;;;;;;;525.67;392.45;;;;;;;;;;5047204;28;20096;-75
2021/08/09 03:08:58;;;;;;;524.13;390.38;;;;;;;;;;5044205;28;20049;-76
2021/08/09 03:11:24;;;;;;;523.20;387.85;;;;;;;;;;5046684;28;20041;-75
2021/08/09 03:13:50;;;;;;;532.58;395.20;;;;;;;;;;5044736;28;20033;-74
2021/08/09 03:16:16;;;;;;;525.40;395.77;;;;;;;;;;5046659;28;20063;-75
2021/08/09 03:18:43;;;;;;;527.60;397.38;;;;;;;;;;5023189;28;20048;-75
2021/08/09 03:21:09;;;;;;;526.45;396.10;;;;;;;;;;5047390;28;20021;-75
2021/08/09 03:23:35;;;;;;;535.40;400.10;;;;;;;;;;5046275;28;20014;-76
2021/08/09 03:26:03;;;;;;;524.13;392.83;;;;;;;;;;5025620;28;20048;-76
2021/08/09 03:28:29;;;;;;;526.70;398.63;;;;;;;;;;5046283;28;20021;-75
2021/08/09 03:30:55;;;;;;;527.17;396.92;;;;;;;;;;5046978;28;20094;-75
2021/08/09 03:33:21;;;;;;;526.47;394.38;;;;;;;;;;5024551;28;20029;-74
2021/08/09 03:35:47;;;;;;;523.80;391.70;;;;;;;;;;5045989;28;20059;-75
2021/08/09 03:38:13;;;;;;;527.42;398.80;;;;;;;;;;5027341;28;20025;-75
2021/08/09 03:40:40;;;;;;;523.15;389.80;;;;;;;;;;5046547;28;20025;-75
2021/08/09 03:43:07;;;;;;;527.70;399.67;;;;;;;;;;5046139;28;20028;-74
2021/08/09 03:45:34;;;;;;;526.33;394.38;;;;;;;;;;5024763;28;20033;-75
2021/08/09 03:48:00;;;;;;;524.38;391.50;;;;;;;;;;5044390;28;20099;-74
2021/08/09 03:50:26;;;;;;;527.28;402.17;;;;;;;;;;5047123;28;20071;-75
2021/08/09 03:52:53;;;;;;;524.05;390.77;;;;;;;;;;5045300;28;20448;-76
2021/08/09 03:55:19;;;;;;;527.72;396.00;;;;;;;;;;5045550;28;20047;-75
2021/08/09 03:57:45;;;;;;;523.28;389.30;;;;;;;;;;5046079;28;20056;-76
2021/08/09 04:00:11;;;;;;;525.70;393.45;;;;;;;;;;5025809;28;20083;-74
2021/08/09 04:02:37;;;;;;;524.22;393.98;;;;;;;;;;5047098;28;20516;-76
2021/08/09 04:05:08;;;;;;;525.95;392.98;;;;;;;;;;5046264;28;20040;-75
2021/08/09 04:07:34;;;;;;;528.53;402.13;;;;;;;;;;5045594;28;20021;-75
2021/08/09 04:10:00;;;;;;;527.03;395.35;;;;;;;;;;5046575;28;20401;-75
2021/08/09 04:12:26;;;;;;;525.72;393.88;;;;;;;;;;5049666;28;20068;-75
2021/08/09 04:14:52;;;;;;;525.08;393.52;;;;;;;;;;5032699;28;20098;-75
2021/08/09 04:17:18;;;;;;;524.20;390.35;;;;;;;;;;5049244;28;20021;-75
2021/08/09 04:19:44;;;;;;;529.78;403.45;;;;;;;;;;5030633;28;20040;-75
2021/08/09 04:22:10;;;;;;;526.38;399.63;;;;;;;;;;5048647;28;20025;-75
2021/08/09 04:24:37;;;;;;;524.90;391.33;;;;;;;;;;5050107;28;20032;-75
2021/08/09 04:27:03;;;;;;;524.75;395.98;;;;;;;;;;5048922;28;21238;-75
2021/08/09 04:29:28;;;;;;;525.72;392.65;;;;;;;;;;5027026;28;20454;-76
2021/08/09 04:31:54;;;;;;;526.53;397.88;;;;;;;;;;5049681;28;20033;-75
2021/08/09 04:34:20;;;;;;;525.08;394.15;;;;;;;;;;5047839;28;20029;-74
2021/08/09 04:36:46;;;;;;;525.75;395.60;;;;;;;;;;5026965;28;20560;-75
2021/08/09 04:39:12;;;;;;;524.22;386.90;;;;;;;;;;5046756;28;20336;-75
2021/08/09 04:41:38;;;;;;;523.22;388.85;;;;;;;;;;5031232;28;20410;-74
2021/08/09 04:44:06;;;;;;;522.42;381.27;;;;;;;;;;5049746;28;20508;-76
2021/08/09 04:46:32;;;;;;;525.13;392.10;;;;;;;;;;5026591;28;20436;-76
2021/08/09 04:48:58;;;;;;;525.90;393.85;;;;;;;;;;5047400;28;20645;-75
2021/08/09 04:51:24;;;;;;;526.42;391.65;;;;;;;;;;5048078;28;20067;-74
2021/08/09 04:53:50;;;;;;;528.40;397.25;;;;;;;;;;5047796;28;20056;-75
2021/08/09 04:56:16;;;;;;;526.30;392.25;;;;;;;;;;5047415;28;20057;-75
2021/08/09 04:58:41;;;;;;;527.80;400.23;;;;;;;;;;5047872;28;20032;-74
2021/08/09 05:01:08;;;;;;;529.03;392.35;;;;;;;;;;5046473;28;20025;-75
2021/08/09 05:03:38;;;;;;;534.65;399.45;;;;;;;;;;5047118;28;20553;-75
2021/08/09 05:06:04;;;;;;;535.25;403.20;;;;;;;;;;5013984;28;20036;-75
2021/08/09 05:08:30;;;;;;;533.33;399.63;;;;;;;;;;5038080;28;20366;-74
2021/08/09 05:10:56;;;;;;;535.47;402.13;;;;;;;;;;5039603;28;20100;-74
2021/08/09 05:13:22;;;;;;;536.67;406.23;;;;;;;;;;5041503;28;20032;-74
2021/08/09 05:15:48;;;;;;;535.60;402.40;;;;;;;;;;5021601;28;20056;-73
2021/08/09 05:18:15;;;;;;;539.13;409.00;;;;;;;;;;5038056;28;20029;-73
2021/08/09 05:20:41;;;;;;;536.28;406.75;;;;;;;;;;5036993;28;20160;-75
2021/08/09 05:23:14;;;;;;;534.58;405.70;;;;;;;;;;5037521;28;20021;-76
2021/08/09 05:25:41;;;;;;;538.50;411.63;;;;;;;;;;5022136;28;20094;-75
2021/08/09 05:28:07;;;;;;;562.45;413.58;;;;;;;;;;5037635;28;20064;-74
2021/08/09 05:30:33;;;;;;;535.50;409.42;;;;;;;;;;5041812;28;20593;-75
2021/08/09 05:33:02;;;;;;;535.95;406.02;;;;;;;;;;5041669;28;20098;-74
2021/08/09 05:35:28;;;;;;;537.47;411.58;;;;;;;;;;5041226;28;20021;-74
2021/08/09 05:37:55;;;;;;;537.30;409.77;;;;;;;;;;5037907;28;20056;-75
2021/08/09 05:40:21;;;;;;;536.70;411.10;;;;;;;;;;5036863;28;21322;-74
2021/08/09 05:42:49;;;;;;;539.65;417.42;;;;;;;;;;5041330;28;20487;-76
2021/08/09 05:45:15;;;;;;;537.55;410.67;;;;;;;;;;5015192;28;20036;-74
2021/08/09 05:47:41;;;;;;;535.10;403.27;;;;;;;;;;5041636;28;20689;-76
2021/08/09 05:50:08;;;;;;;540.17;417.23;;;;;;;;;;5022675;28;20044;-76
2021/08/09 05:52:34;;;;;;;540.38;413.92;;;;;;;;;;5029119;28;20431;-76
2021/08/09 05:55:06;;;;;;;539.83;419.27;;;;;;;;;;5029702;28;20051;-76
2021/08/09 05:57:33;;;;;;;538.28;415.15;;;;;;;;;;5022215;28;20040;-77
2021/08/09 05:59:59;;;;;;;539.58;414.38;;;;;;;;;;5029707;28;20115;-76
2021/08/09 06:02:25;;;;;;;538.63;414.15;;;;;;;;;;5036058;28;20501;-74
2021/08/09 06:04:51;;;;;;;535.67;409.73;;;;;;;;;;5021774;28;20633;-73
2021/08/09 06:07:17;;;;;;;537.78;412.00;;;;;;;;;;5040208;28;20096;-75
2021/08/09 06:09:44;;;;;;;537.70;415.80;;;;;;;;;;5041639;28;20037;-75
2021/08/09 06:12:11;;;;;;;541.22;420.17;;;;;;;;;;5041391;28;20218;-77
2021/08/09 06:14:37;;;;;;;536.42;417.17;;;;;;;;;;5003268;28;20049;-72
2021/08/09 06:17:04;;;;;;;538.35;414.95;;;;;;;;;;5023785;28;20185;-73
2021/08/09 06:19:33;;;;;;;538.72;415.00;;;;;;;;;;5020459;28;20041;-73
2021/08/09 06:22:00;;;;;;;539.85;415.85;;;;;;;;;;5017220;28;20075;-73
2021/08/09 06:24:26;;;;;;;534.60;410.23;;;;;;;;;;5022840;28;20096;-72
2021/08/09 06:26:52;;;;;;;539.70;420.98;;;;;;;;;;5016913;28;20061;-80
2021/08/09 06:29:18;;;;;;;543.67;421.48;;;;;;;;;;4998969;28;20125;-74
2021/08/09 06:31:44;;;;;;;557.75;420.63;;;;;;;;;;5002114;28;20835;-75
2021/08/09 06:34:10;;;;;;;543.13;418.17;;;;;;;;;;4999323;28;20041;-74
2021/08/09 06:36:36;;;;;;;541.15;417.80;;;;;;;;;;5002563;28;20041;-74
2021/08/09 06:39:02;;;;;;;540.08;416.73;;;;;;;;;;5019208;28;20025;-74
2021/08/09 06:41:32;;;;;;;540.00;419.98;;;;;;;;;;5002810;28;20033;-73
2021/08/09 06:43:58;;;;;;;539.42;416.92;;;;;;;;;;5018509;28;20025;-74
2021/08/09 06:46:24;;;;;;;539.35;414.38;;;;;;;;;;5020024;28;20036;-73
2021/08/09 06:48:50;;;;;;;540.85;422.48;;;;;;;;;;5023346;28;20029;-72
2021/08/09 06:51:16;;;;;;;538.03;419.02;;;;;;;;;;5041188;28;20041;-73
2021/08/09 06:53:42;;;;;;;540.08;424.77;;;;;;;;;;5041388;28;20159;-73
2021/08/09 06:56:13;;;;;;;541.72;425.60;;;;;;;;;;5041751;28;20021;-72
2021/08/09 06:58:39;;;;;;;539.55;420.88;;;;;;;;;;5041351;28;20021;-73
2021/08/09 07:01:05;;;;;;;544.85;432.52;;;;;;;;;;5023696;28;20122;-73
2021/08/09 07:03:30;;;;;;;545.35;430.60;;;;;;;;;;5024207;28;20040;-72
2021/08/09 07:05:56;;;;;;;546.47;432.50;;;;;;;;;;5041504;28;20040;-72
2021/08/09 07:08:22;;;;;;;545.75;431.38;;;;;;;;;;5041208;28;20025;-74
2021/08/09 07:10:51;;;;;;;548.35;433.02;;;;;;;;;;5023739;28;20519;-73
2021/08/09 07:13:17;;;;;;;546.78;433.42;;;;;;;;;;5040469;28;20116;-73
2021/08/09 07:15:43;;;;;;;550.05;438.73;;;;;;;;;;5023353;28;20028;-72
2021/08/09 07:18:09;;;;;;;552.30;441.27;;;;;;;;;;5041086;28;20040;-74
2021/08/09 07:20:35;;;;;;;552.63;436.50;;;;;;;;;;5023709;28;20721;-73
2021/08/09 07:23:01;;;;;;;552.50;441.80;;;;;;;;;;5041188;28;20029;-73
2021/08/09 07:25:27;;;;;;;545.92;436.38;;;;;;;;;;5040655;28;20541;-76
2021/08/09 07:27:53;;;;;;;549.53;446.02;;;;;;;;;;5023406;28;20254;-75
2021/08/09 07:30:19;;;;;;;544.78;433.98;;;;;;;;;;5041575;28;20025;-75
2021/08/09 07:32:45;;;;;;;546.00;444.05;;;;;;;;;;5041664;28;20090;-75
2021/08/09 07:35:12;;;;;;;547.58;448.67;;;;;;;;;;5011545;28;20065;-77
2021/08/09 07:37:38;;;;;;;542.63;445.80;;;;;;;;;;5021508;28;20052;-78
2021/08/09 07:40:05;;;;;;;546.25;454.75;;;;;;;;;;5014524;28;20049;-76
2021/08/09 07:42:31;;;;;;;544.70;457.38;;;;;;;;;;5033970;28;20029;-74
2021/08/09 07:44:57;;;;;;;545.55;459.98;;;;;;;;;;5021995;28;20021;-75
2021/08/09 07:47:23;;;;;;;551.67;472.27;;;;;;;;;;5040209;28;20102;-73
2021/08/09 07:49:49;;;;;;;545.78;463.48;;;;;;;;;;5044596;28;20025;-75
2021/08/09 07:52:15;;;;;;;548.90;468.45;;;;;;;;;;5026046;28;20070;-75
2021/08/09 07:54:41;;;;;;;550.92;470.58;;;;;;;;;;5044066;28;20535;-74
2021/08/09 07:57:07;;;;;;;552.13;481.67;;;;;;;;;;5026219;28;20044;-75
2021/08/09 07:59:34;;;;;;;553.25;483.90;;;;;;;;;;5043059;28;20065;-74
2021/08/09 08:02:04;;;;;;;551.40;484.50;;;;;;;;;;5043716;28;20029;-74
2021/08/09 08:04:31;;;;;;;557.10;495.13;;;;;;;;;;5025697;28;20021;-73
2021/08/09 08:06:57;;;;;;;554.30;492.27;;;;;;;;;;5024577;28;20032;-76
2021/08/09 08:09:26;;;;;;;570.50;508.33;;;;;;;;;;5012022;28;20041;-78
2021/08/09 08:11:52;;;;;;;575.03;512.72;;;;;;;;;;5026618;28;20051;-76
2021/08/09 08:14:18;;;;;;;583.67;521.22;;;;;;;;;;5025877;28;20421;-76
2021/08/09 08:16:46;;;;;;;579.20;516.95;;;;;;;;;;5019110;28;20829;-79
2021/08/09 08:19:12;;;;;;;584.15;521.78;;;;;;;;;;5025350;28;20063;-75
2021/08/09 08:21:38;;;;;;;579.95;517.53;;;;;;;;;;5024602;28;20033;-76
2021/08/09 08:24:04;;;;;;;579.25;517.00;;;;;;;;;;5024969;28;20033;-77
2021/08/09 08:26:30;;;;;;;582.38;520.03;;;;;;;;;;5025084;28;20032;-75
2021/08/09 08:28:55;;;;;;;586.03;523.80;;;;;;;;;;5023735;28;20039;-77
2021/08/09 08:31:21;;;;;;;584.38;522.03;;;;;;;;;;5025316;28;20059;-77
2021/08/09 08:33:47;;;;;;;595.97;533.25;;;;;;;;;;5023303;28;20105;-77
2021/08/09 08:36:13;;;;;;;602.40;539.47;;;;;;;;;;5012750;28;20049;-76
2021/08/09 08:38:39;;;;;;;595.58;532.92;;;;;;;;;;5026724;28;20036;-75
2021/08/09 08:41:06;;;;;;;599.45;536.97;;;;;;;;;;5023420;28;20029;-76
2021/08/09 08:43:33;;;;;;;594.17;531.67;;;;;;;;;;5025634;28;20043;-76
2021/08/09 08:46:00;;;;;;;600.90;538.17;;;;;;;;;;5024339;28;20431;-79
2021/08/09 08:48:26;;;;;;;592.20;529.90;;;;;;;;;;5022388;28;20033;-76
2021/08/09 08:50:53;;;;;;;589.15;526.72;;;;;;;;;;5025385;28;20132;-76
2021/08/09 08:53:19;;;;;;;589.65;527.28;;;;;;;;;;5015552;28;20049;-77
2021/08/09 08:55:45;;;;;;;576.70;514.90;;;;;;;;;;5015900;28;20247;-77
2021/08/09 08:58:11;;;;;;;594.05;531.17;;;;;;;;;;5020846;28;20038;-80
2021/08/09 09:00:38;;;;;;;585.88;523.55;;;;;;;;;;5019723;28;20025;-77
2021/08/09 09:03:06;;;;;;;592.17;529.53;;;;;;;;;;5021535;28;20110;-77
2021/08/09 09:05:33;;;;;;;588.47;526.40;;;;;;;;;;5021206;28;20029;-77
2021/08/09 09:07:59;;;;;;;586.28;524.35;;;;;;;;;;5023033;28;20037;-78
2021/08/09 09:10:30;;;;;;;575.30;513.75;;;;;;;;;;5021519;28;20103;-77
2021/08/09 09:13:15;;;;;;;579.15;517.28;;;;;;;;;;5021706;28;20030;-78
2021/08/09 09:16:00;;;;;;;571.38;509.50;;;;;;;;;;5022025;28;20531;-78
2021/08/09 09:18:27;;;;;;;572.28;510.17;;;;;;;;;;5019786;28;20037;-78
2021/08/09 09:20:54;;;;;;;574.33;512.33;;;;;;;;;;5021513;28;20103;-77
2021/08/09 09:23:22;;;;;;;572.22;510.50;;;;;;;;;;5022823;28;20510;-77
2021/08/09 09:25:48;;;;;;;563.53;501.92;;;;;;;;;;5020362;28;20036;-79
2021/08/09 09:28:21;;;;;;;568.40;506.88;;;;;;;;;;5021211;28;20021;-78
2021/08/09 09:30:48;;;;;;;562.90;501.27;;;;;;;;;;5032187;28;20404;-78
2021/08/09 09:33:14;;;;;;;562.15;500.55;;;;;;;;;;5019527;28;20065;-78
2021/08/09 09:35:40;;;;;;;565.40;503.77;;;;;;;;;;5020614;28;20124;-77
2021/08/09 09:38:06;;;;;;;564.70;502.88;;;;;;;;;;5020692;28;20464;-78
2021/08/09 09:40:38;;;;;;;563.95;502.08;;;;;;;;;;5016672;28;20025;-77
2021/08/09 09:43:14;;;;;;;565.47;503.75;;;;;;;;;;5018204;28;20388;-76
2021/08/09 09:45:49;;;;;;;569.13;507.38;;;;;;;;;;5020668;28;20121;-79
2021/08/09 09:48:15;;;;;;;570.08;508.25;;;;;;;;;;5022267;28;20710;-76
2021/08/09 09:50:42;;;;;;;563.10;501.70;;;;;;;;;;5021529;28;20087;-76
2021/08/09 09:53:21;;;;;;;569.75;507.80;;;;;;;;;;5023135;28;20032;-76
2021/08/09 09:55:50;;;;;;;569.20;507.45;;;;;;;;;;5041170;28;20040;-76
2021/08/09 09:58:20;;;;;;;569.00;506.83;;;;;;;;;;5022207;28;20407;-81
2021/08/09 10:00:46;;;;;;;564.72;502.88;;;;;;;;;;5025005;28;20470;-80
2021/08/09 10:03:12;;;;;;;564.90;503.17;;;;;;;;;;5025251;28;20719;-80
2021/08/09 10:05:40;;;;;;;561.08;499.52;;;;;;;;;;5040811;28;20036;-79
2021/08/09 10:08:07;;;;;;;566.67;504.70;;;;;;;;;;5040284;28;20025;-81
2021/08/09 10:10:33;;;;;;;564.03;502.38;;;;;;;;;;5039568;28;20037;-80
2021/08/09 10:13:00;;;;;;;562.58;500.98;;;;;;;;;;5040559;28;20432;-77
2021/08/09 10:15:27;;;;;;;565.63;503.95;;;;;;;;;;5038388;28;20055;-77
2021/08/09 10:17:53;;;;;;;563.40;501.98;;;;;;;;;;5024100;28;20040;-78
2021/08/09 10:20:19;;;;;;;564.78;503.13;;;;;;;;;;5040383;28;20048;-77
2021/08/09 10:22:57;;;;;;;561.63;500.20;;;;;;;;;;5023054;28;20033;-77
2021/08/09 10:25:42;;;;;;;557.75;496.27;;;;;;;;;;5022773;28;20021;-82
2021/08/09 10:28:08;;;;;;;565.90;504.05;;;;;;;;;;5023982;28;20033;-79
2021/08/09 10:30:37;;;;;;;562.67;500.90;;;;;;;;;;5021438;28;20087;-79
2021/08/09 10:33:15;;;;;;;574.75;511.85;;;;;;;;;;5019576;28;20122;-78
2021/08/09 10:35:53;;;;;;;565.15;503.20;;;;;;;;;;5022932;28;20021;-79
2021/08/09 10:38:27;;;;;;;565.30;503.25;;;;;;;;;;5018341;28;20029;-82
2021/08/09 10:41:11;;;;;;;565.90;504.30;;;;;;;;;;5016564;28;20037;-81
2021/08/09 10:43:40;;;;;;;571.03;508.77;;;;;;;;;;5018881;28;20032;-82
2021/08/09 10:46:30;;;;;;;585.05;507.27;;;;;;;;;;5019598;28;20567;-82
2021/08/09 10:48:56;;;;;;;561.50;499.45;;;;;;;;;;5017959;28;20028;-80
2021/08/09 10:51:51;;;;;;;581.97;518.00;;;;;;;;;;5018457;28;20049;-79
2021/08/09 10:54:36;;;;;;;563.08;501.10;;;;;;;;;;5019182;28;20044;-82
2021/08/09 10:57:06;;;;;;;559.92;498.38;;;;;;;;;;5019780;28;20132;-81
2021/08/09 10:59:39;;;;;;;570.38;508.48;;;;;;;;;;5022044;28;20021;-79
2021/08/09 11:02:27;;;;;;;562.08;500.20;;;;;;;;;;5036426;28;20108;-79
2021/08/09 11:05:15;;;;;;;564.65;502.92;;;;;;;;;;5037081;28;20047;-81
2021/08/09 11:07:46;;;;;;;561.65;499.98;;;;;;;;;;5017180;28;20028;-81
2021/08/09 11:10:12;;;;;;;562.72;500.92;;;;;;;;;;5012509;28;20119;-81
2021/08/09 11:13:04;;;;;;;559.03;497.50;;;;;;;;;;5014786;28;20549;-81
2021/08/09 11:15:39;;;;;;;561.47;499.60;;;;;;;;;;5036319;28;20352;-83
2021/08/09 11:18:05;;;;;;;560.70;498.90;;;;;;;;;;5016742;28;20550;-81
2021/08/09 11:20:32;;;;;;;558.92;497.33;;;;;;;;;;5020809;28;20029;-82
2021/08/09 11:23:10;;;;;;;553.45;491.70;;;;;;;;;;5026782;28;20132;-80
2021/08/09 11:25:40;;;;;;;553.45;491.92;;;;;;;;;;5026802;28;20724;-80
2021/08/09 11:28:21;;;;;;;559.60;497.90;;;;;;;;;;5027515;28;20025;-79
2021/08/09 11:30:47;;;;;;;557.15;495.67;;;;;;;;;;5028315;28;20033;-81
2021/08/09 11:33:22;;;;;;;561.20;499.60;;;;;;;;;;5027864;28;20048;-79
2021/08/09 11:35:50;;;;;;;561.95;500.13;;;;;;;;;;5008347;28;20033;-82
2021/08/09 11:38:16;;;;;;;554.08;492.77;;;;;;;;;;5010956;28;20052;-82
2021/08/09 11:40:47;;;;;;;549.88;483.50;;;;;;;;;;5028242;28;20029;-79
2021/08/09 11:43:21;;;;;;;560.00;498.38;;;;;;;;;;5026912;28;20469;-80
2021/08/09 11:45:47;;;;;;;554.63;493.17;;;;;;;;;;5027550;28;20025;-78
2021/08/09 11:48:31;;;;;;;551.58;488.80;;;;;;;;;;5027429;28;20347;-81
2021/08/09 11:51:04;;;;;;;552.30;490.35;;;;;;;;;;5029183;28;20037;-82
2021/08/09 11:53:30;;;;;;;550.92;488.80;;;;;;;;;;5025034;28;20159;-81
2021/08/09 11:56:13;;;;;;;554.20;492.90;;;;;;;;;;5027522;28;20025;-80
2021/08/09 11:58:39;;;;;;;552.47;489.48;;;;;;;;;;5010858;28;20025;-80
2021/08/09 12:01:05;;;;;;;553.80;492.75;;;;;;;;;;5028032;28;20039;-80
2021/08/09 12:03:32;;;;;;;550.92;487.88;;;;;;;;;;5029101;28;20454;-79
2021/08/09 12:06:18;;;;;;;559.75;498.13;;;;;;;;;;5027474;28;20029;-81
2021/08/09 12:08:57;;;;;;;559.60;497.98;;;;;;;;;;5042644;28;20033;-81
2021/08/09 12:11:26;;;;;;;558.30;496.73;;;;;;;;;;5026732;28;20721;-81
2021/08/09 12:14:04;;;;;;;561.22;499.80;;;;;;;;;;5019385;28;20040;-82
2021/08/09 12:17:06;;;;;;;579.63;518.08;;;;;;;;;;5041997;28;20043;-83
2021/08/09 12:19:35;;;;;;;597.88;535.78;;;;;;;;;;4924582;29;20882;-82
2021/08/09 12:22:17;;;;;;;612.47;550.45;;;;;;;;;;4992854;28;20038;-79
2021/08/09 12:25:01;;;;;;;633.97;571.40;;;;;;;;;;5022340;28;20040;-73
2021/08/09 12:27:27;;;;;;;652.83;589.92;;;;;;;;;;5045948;28;20032;-78
2021/08/09 12:30:06;;;;;;;668.65;605.40;;;;;;;;;;5026728;28;20151;-78
2021/08/09 12:32:32;;;;;;;669.67;606.83;;;;;;;;;;5024031;28;20143;-79
2021/08/09 12:34:59;;;;;;;672.25;607.95;;;;;;;;;;5025087;28;20056;-81
2021/08/09 12:37:27;;;;;;;645.60;583.00;;;;;;;;;;5021960;28;20036;-76
2021/08/09 12:40:08;;;;;;;639.97;576.97;;;;;;;;;;5026330;28;20060;-78
2021/08/09 12:42:34;;;;;;;620.97;558.42;;;;;;;;;;5025318;28;20483;-77
2021/08/09 12:45:01;;;;;;;613.08;550.45;;;;;;;;;;5025756;28;20043;-78
2021/08/09 12:47:29;;;;;;;598.58;536.17;;;;;;;;;;5026557;28;20598;-78
2021/08/09 12:49:55;;;;;;;605.10;542.45;;;;;;;;;;5022427;28;20044;-79
2021/08/09 12:52:21;;;;;;;607.83;545.38;;;;;;;;;;5021816;28;20032;-79
2021/08/09 12:54:47;;;;;;;616.05;553.50;;;;;;;;;;5025564;28;20110;-79
2021/08/09 12:57:13;;;;;;;611.17;548.85;;;;;;;;;;5024950;28;20028;-77
2021/08/09 12:59:39;;;;;;;614.92;552.58;;;;;;;;;;5010941;28;20603;-76
2021/08/09 13:02:05;;;;;;;620.95;558.20;;;;;;;;;;5037378;28;20040;-76
2021/08/09 13:04:31;;;;;;;615.25;551.85;;;;;;;;;;5025741;28;20067;-76
2021/08/09 13:06:57;;;;;;;628.95;566.42;;;;;;;;;;5026523;28;20036;-76
2021/08/09 13:09:24;;;;;;;631.53;569.08;;;;;;;;;;5010569;28;20037;-76
2021/08/09 13:11:50;;;;;;;640.78;578.08;;;;;;;;;;5014751;28;20052;-76
2021/08/09 13:14:16;;;;;;;645.28;582.50;;;;;;;;;;5042679;28;20032;-75
2021/08/09 13:16:42;;;;;;;641.05;578.33;;;;;;;;;;5025003;28;20033;-76
2021/08/09 13:19:08;;;;;;;636.55;574.15;;;;;;;;;;5025538;28;20140;-74
2021/08/09 13:21:34;;;;;;;644.92;582.38;;;;;;;;;;5025846;28;20041;-76
2021/08/09 13:24:00;;;;;;;658.90;596.15;;;;;;;;;;5025262;28;20029;-74
2021/08/09 13:26:27;;;;;;;666.75;604.00;;;;;;;;;;5042769;28;20033;-74
2021/08/09 13:28:55;;;;;;;691.58;628.08;;;;;;;;;;5042975;28;20057;-75
2021/08/09 13:31:21;;;;;;;696.22;632.97;;;;;;;;;;5042379;28;20033;-75
2021/08/09 13:33:49;;;;;;;705.15;641.58;;;;;;;;;;5042895;28;20058;-75
2021/08/09 13:36:15;;;;;;;695.72;632.50;;;;;;;;;;5042832;28;20045;-75
2021/08/09 13:38:41;;;;;;;703.35;639.88;;;;;;;;;;5043151;28;20032;-78
2021/08/09 13:41:07;;;;;;;685.55;622.40;;;;;;;;;;5024238;28;20081;-77
2021/08/09 13:43:36;;;;;;;680.58;617.25;;;;;;;;;;5020371;28;20033;-77
2021/08/09 13:46:02;;;;;;;670.35;607.45;;;;;;;;;;5015000;28;20029;-76
2021/08/09 13:48:28;;;;;;;659.95;597.00;;;;;;;;;;5025704;28;20040;-79
2021/08/09 13:51:10;;;;;;;;;;;;;;;;;;;;;
2021/08/09 13:53:36;;;;;;;659.50;596.17;;;;;;;;;;5041136;28;20047;-78
2021/08/09 13:56:03;;;;;;;654.70;591.90;;;;;;;;;;5015638;28;20029;-77
2021/08/09 13:58:29;;;;;;;658.05;595.28;;;;;;;;;;5024561;28;20337;-79
2021/08/09 14:00:54;;;;;;;661.42;598.70;;;;;;;;;;5024847;28;20044;-78